Time;durP1;ratioP1;P1;durP2;ratioP2;P2;SDS_P1;SDS_P2;PMS_P1;PMS_P2;Temp;Humidity;BMP_temperature;BMP_pressure;BME280_temperature;BME280_humidity;BME280_pressure;Samples;Min_cycle;Max_cycle;Signal;HPM_P1;HPM_P2
2024/01/06 00:01:17;;;;;;;5.07;4.43;;;8.30;99.90;;;;;;4140509;28;20074;-76
2024/01/06 00:03:17;;;;;;;5.18;4.30;;;8.30;99.90;;;;;;4143654;28;20069;-74
2024/01/06 00:05:18;;;;;;;7.38;5.15;;;8.30;99.90;;;;;;4139043;28;20092;-75
2024/01/06 00:07:19;;;;;;;5.65;5.05;;;8.30;99.90;;;;;;4141365;28;20121;-75
2024/01/06 00:09:19;;;;;;;5.50;4.78;;;8.30;99.90;;;;;;4142250;28;20139;-75
2024/01/06 00:11:20;;;;;;;5.78;4.97;;;8.30;99.90;;;;;;4138164;28;20026;-75
2024/01/06 00:13:21;;;;;;;4.78;4.22;;;8.30;99.90;;;;;;4142135;28;20037;-75
2024/01/06 00:15:22;;;;;;;5.78;4.30;;;8.20;99.90;;;;;;4138025;28;20041;-75
2024/01/06 00:17:22;;;;;;;4.82;4.32;;;8.30;99.90;;;;;;4142418;28;20401;-76
2024/01/06 00:19:23;;;;;;;7.03;5.57;;;8.30;99.90;;;;;;4141023;28;20449;-76
2024/01/06 00:21:24;;;;;;;6.43;5.68;;;8.30;99.90;;;;;;4141423;28;20038;-74
2024/01/06 00:23:24;;;;;;;5.65;5.07;;;8.30;99.90;;;;;;4139650;28;20045;-75
2024/01/06 00:25:25;;;;;;;7.18;5.63;;;8.30;99.90;;;;;;4157423;28;20227;-75
2024/01/06 00:27:26;;;;;;;7.10;5.90;;;8.30;99.90;;;;;;4142179;28;20592;-75
2024/01/06 00:29:26;;;;;;;7.53;5.47;;;8.30;99.90;;;;;;4139276;28;20052;-75
2024/01/06 00:31:27;;;;;;;7.93;6.50;;;8.30;99.90;;;;;;4141797;28;20042;-74
2024/01/06 00:33:27;;;;;;;5.78;5.15;;;8.30;99.90;;;;;;4136191;28;20045;-75
2024/01/06 00:35:28;;;;;;;6.80;5.95;;;8.30;99.90;;;;;;4137270;28;20430;-75
2024/01/06 00:37:28;;;;;;;7.45;5.88;;;8.30;99.90;;;;;;4138486;28;20046;-74
2024/01/06 00:39:29;;;;;;;6.97;5.25;;;8.30;99.90;;;;;;4137619;28;20206;-76
2024/01/06 00:41:30;;;;;;;7.28;5.93;;;8.40;99.90;;;;;;4139165;28;20046;-77
2024/01/06 00:43:30;;;;;;;5.75;5.15;;;8.40;99.90;;;;;;4138616;28;20038;-77
2024/01/06 00:45:31;;;;;;;6.43;5.57;;;8.30;99.90;;;;;;4138341;28;20462;-77
2024/01/06 00:47:32;;;;;;;6.80;6.10;;;8.40;99.90;;;;;;4138809;28;20048;-77
2024/01/06 00:49:32;;;;;;;6.50;5.60;;;8.40;99.90;;;;;;4137953;28;20030;-77
2024/01/06 00:51:33;;;;;;;6.35;5.70;;;8.40;99.90;;;;;;4136075;28;20164;-77
2024/01/06 00:53:34;;;;;;;5.43;4.90;;;8.40;99.90;;;;;;4136634;28;20127;-76
2024/01/06 00:55:35;;;;;;;7.45;5.10;;;8.40;99.90;;;;;;4137667;28;20034;-77
2024/01/06 00:57:35;;;;;;;6.03;5.30;;;8.40;99.90;;;;;;4141689;28;20121;-77
2024/01/06 00:59:36;;;;;;;6.93;5.78;;;8.40;99.90;;;;;;4140238;28;20065;-71
2024/01/06 01:01:36;;;;;;;7.07;6.13;;;8.40;99.90;;;;;;4140166;28;20038;-75
2024/01/06 01:03:37;;;;;;;7.13;6.10;;;8.40;99.90;;;;;;4139784;28;20030;-71
2024/01/06 01:05:37;;;;;;;7.70;6.53;;;8.40;99.90;;;;;;4139055;28;20061;-71
2024/01/06 01:07:38;;;;;;;11.20;8.57;;;8.40;99.90;;;;;;4138875;28;20467;-71
2024/01/06 01:09:38;;;;;;;10.80;7.97;;;8.40;99.90;;;;;;4135955;28;20046;-70
2024/01/06 01:11:39;;;;;;;8.07;6.72;;;8.40;99.90;;;;;;4134515;28;20037;-71
2024/01/06 01:13:40;;;;;;;9.77;6.72;;;8.40;99.90;;;;;;4140591;28;20038;-71
2024/01/06 01:15:41;;;;;;;7.47;6.68;;;8.40;99.90;;;;;;4139252;28;20041;-71
2024/01/06 01:17:42;;;;;;;8.35;6.93;;;8.30;99.90;;;;;;4141238;28;20092;-71
2024/01/06 01:19:43;;;;;;;8.23;6.70;;;8.40;99.90;;;;;;4138000;28;20093;-71
2024/01/06 01:21:43;;;;;;;8.65;7.00;;;8.40;99.90;;;;;;4139201;28;20034;-71
2024/01/06 01:23:44;;;;;;;10.10;8.40;;;8.40;99.90;;;;;;4137476;28;20045;-71
2024/01/06 01:25:44;;;;;;;9.10;7.70;;;8.40;99.90;;;;;;4137933;28;20458;-71
2024/01/06 01:27:45;;;;;;;9.98;7.65;;;8.40;99.90;;;;;;4132463;28;20034;-71
2024/01/06 01:29:45;;;;;;;10.63;8.10;;;8.40;99.90;;;;;;4134817;28;20085;-71
2024/01/06 01:31:47;;;;;;;12.63;9.63;;;8.40;99.90;;;;;;4138714;28;20117;-72
2024/01/06 01:33:47;;;;;;;12.52;9.55;;;8.40;99.90;;;;;;4134117;28;20050;-71
2024/01/06 01:35:48;;;;;;;12.05;8.93;;;8.40;99.90;;;;;;4131171;28;20046;-71
2024/01/06 01:37:49;;;;;;;11.27;8.90;;;8.40;99.90;;;;;;4134847;28;20035;-71
2024/01/06 01:39:49;;;;;;;11.77;9.13;;;8.40;99.90;;;;;;4133040;28;20049;-72
2024/01/06 01:41:50;;;;;;;14.35;10.40;;;8.40;99.90;;;;;;4139214;28;20056;-72
2024/01/06 01:43:57;;;;;;;13.70;10.10;;;8.40;99.90;;;;;;4135224;28;20042;-71
2024/01/06 01:45:58;;;;;;;12.00;8.82;;;8.40;99.90;;;;;;4133222;28;20046;-70
2024/01/06 01:47:59;;;;;;;11.75;9.25;;;8.40;99.90;;;;;;4133290;28;20423;-71
2024/01/06 01:50:00;;;;;;;14.13;10.50;;;8.40;99.90;;;;;;4130797;28;20045;-71
2024/01/06 01:52:01;;;;;;;14.32;10.55;;;8.40;99.90;;;;;;4138487;28;20038;-71
2024/01/06 01:54:03;;;;;;;17.33;11.27;;;8.40;99.90;;;;;;4142315;28;20049;-72
2024/01/06 01:56:04;;;;;;;16.20;11.80;;;8.40;99.90;;;;;;4137482;28;20120;-71
2024/01/06 01:58:05;;;;;;;17.38;12.23;;;8.40;99.90;;;;;;4133374;28;20037;-71
2024/01/06 02:00:07;;;;;;;19.83;13.80;;;8.40;99.90;;;;;;4135232;28;20034;-72
2024/01/06 02:02:08;;;;;;;16.48;11.98;;;8.40;99.90;;;;;;4136006;28;20043;-71
2024/01/06 02:04:09;;;;;;;17.48;12.43;;;8.40;99.90;;;;;;4133810;28;20138;-71
2024/01/06 02:06:10;;;;;;;14.05;10.40;;;8.40;99.90;;;;;;4137060;28;20463;-71
2024/01/06 02:08:11;;;;;;;14.07;10.02;;;8.40;99.90;;;;;;4139499;28;20034;-71
2024/01/06 02:10:11;;;;;;;17.63;12.05;;;8.40;99.90;;;;;;4142667;28;20457;-72
2024/01/06 02:12:12;;;;;;;18.17;12.32;;;8.40;99.90;;;;;;4139757;28;20084;-71
2024/01/06 02:14:13;;;;;;;20.70;14.52;;;8.40;99.90;;;;;;4141571;28;20038;-77
2024/01/06 02:16:13;;;;;;;17.80;12.77;;;8.40;99.90;;;;;;4137373;28;20794;-78
2024/01/06 02:18:14;;;;;;;17.30;12.10;;;8.40;99.90;;;;;;4145887;28;20247;-77
2024/01/06 02:20:19;;;;;;;21.65;15.02;;;8.40;99.90;;;;;;4142778;28;20406;-78
2024/01/06 02:22:20;;;;;;;23.58;15.70;;;8.40;99.90;;;;;;4142323;28;20482;-77
2024/01/06 02:24:21;;;;;;;20.15;13.98;;;8.40;99.90;;;;;;4142278;28;20080;-78
2024/01/06 02:26:21;;;;;;;21.48;15.20;;;8.40;99.90;;;;;;4143565;28;20120;-78
2024/01/06 02:28:22;;;;;;;21.73;13.20;;;8.30;99.90;;;;;;4145613;28;20030;-77
2024/01/06 02:30:23;;;;;;;22.60;14.75;;;8.30;99.90;;;;;;4142934;28;20042;-78
2024/01/06 02:32:23;;;;;;;23.40;15.38;;;8.30;99.90;;;;;;4141930;28;20417;-78
2024/01/06 02:34:24;;;;;;;25.58;16.10;;;8.30;99.90;;;;;;4137878;28;20050;-77
2024/01/06 02:36:24;;;;;;;22.15;14.38;;;8.30;99.90;;;;;;4127883;28;20019;-77
2024/01/06 02:38:25;;;;;;;24.17;15.40;;;8.20;99.90;;;;;;4142293;28;20057;-77
2024/01/06 02:40:25;;;;;;;20.17;13.82;;;8.20;99.90;;;;;;4140293;28;20044;-78
2024/01/06 02:42:26;;;;;;;21.15;13.77;;;8.10;99.90;;;;;;4137513;28;20132;-78
2024/01/06 02:44:26;;;;;;;23.02;14.50;;;8.10;99.90;;;;;;4139036;28;20052;-79
2024/01/06 02:46:27;;;;;;;22.77;14.52;;;8.00;99.90;;;;;;4134094;28;20034;-78
2024/01/06 02:48:30;;;;;;;19.60;12.60;;;7.90;99.90;;;;;;4133694;28;20042;-78
2024/01/06 02:50:31;;;;;;;19.17;12.40;;;7.90;99.90;;;;;;4142075;28;20037;-78
2024/01/06 02:52:31;;;;;;;20.17;13.35;;;7.80;99.90;;;;;;4138454;28;20035;-77
2024/01/06 02:54:32;;;;;;;18.13;12.02;;;7.80;99.90;;;;;;4139819;28;20034;-78
2024/01/06 02:56:32;;;;;;;19.67;12.75;;;7.70;99.90;;;;;;4141343;28;20037;-79
2024/01/06 02:58:33;;;;;;;18.08;11.82;;;7.70;99.90;;;;;;4139855;28;20029;-78
2024/01/06 03:00:33;;;;;;;20.15;12.70;;;7.60;99.90;;;;;;4131708;28;20073;-77
2024/01/06 03:02:35;;;;;;;18.55;11.95;;;7.60;99.90;;;;;;4139432;28;20041;-78
2024/01/06 03:04:36;;;;;;;18.02;10.98;;;7.60;99.90;;;;;;4136424;28;20037;-78
2024/01/06 03:06:36;;;;;;;17.15;11.15;;;7.60;99.90;;;;;;4141351;28;20030;-78
2024/01/06 03:08:37;;;;;;;18.27;11.73;;;7.60;99.90;;;;;;4138419;28;20045;-78
2024/01/06 03:10:38;;;;;;;15.43;10.70;;;7.60;99.90;;;;;;4139802;28;20478;-78
2024/01/06 03:12:39;;;;;;;15.13;9.70;;;7.50;99.90;;;;;;4139340;28;20398;-75
2024/01/06 03:14:40;;;;;;;15.13;9.60;;;7.50;99.90;;;;;;4141313;28;20049;-77
2024/01/06 03:16:40;;;;;;;15.10;9.95;;;7.50;99.90;;;;;;4139531;28;20041;-78
2024/01/06 03:18:41;;;;;;;17.48;10.77;;;7.50;99.90;;;;;;4131581;28;20042;-77
2024/01/06 03:20:42;;;;;;;17.35;11.05;;;7.50;99.90;;;;;;4136971;28;20061;-79
2024/01/06 03:22:42;;;;;;;16.50;10.48;;;7.40;99.90;;;;;;4141493;28;20068;-64
2024/01/06 03:24:43;;;;;;;13.43;9.27;;;7.40;99.90;;;;;;4138350;28;20037;-64
2024/01/06 03:26:44;;;;;;;17.77;11.52;;;7.40;99.90;;;;;;4141469;28;20069;-64
2024/01/06 03:28:44;;;;;;;15.07;9.88;;;7.40;99.90;;;;;;4142675;28;20757;-64
2024/01/06 03:30:45;;;;;;;12.25;8.60;;;7.40;99.90;;;;;;4138085;28;20022;-65
2024/01/06 03:32:45;;;;;;;13.85;9.07;;;7.40;99.90;;;;;;4142646;28;20132;-64
2024/01/06 03:34:46;;;;;;;14.73;10.00;;;7.40;99.90;;;;;;4140214;28;20044;-64
2024/01/06 03:36:47;;;;;;;15.27;9.52;;;7.40;99.90;;;;;;4140041;28;20053;-64
2024/01/06 03:38:47;;;;;;;13.00;8.25;;;7.40;99.90;;;;;;4141349;28;20042;-64
2024/01/06 03:40:48;;;;;;;12.88;8.57;;;7.40;99.90;;;;;;4140618;28;20502;-64
2024/01/06 03:42:49;;;;;;;11.88;7.50;;;7.40;99.90;;;;;;4140533;28;20034;-64
2024/01/06 03:44:50;;;;;;;14.32;8.90;;;7.40;99.90;;;;;;4140356;28;20061;-64
2024/01/06 03:46:50;;;;;;;13.48;8.45;;;7.40;99.90;;;;;;4143525;28;20383;-64
2024/01/06 03:48:51;;;;;;;14.32;9.40;;;7.40;99.90;;;;;;4142302;28;20108;-64
2024/01/06 03:50:51;;;;;;;12.75;8.85;;;7.40;99.90;;;;;;4140342;28;20046;-64
2024/01/06 03:52:52;;;;;;;17.45;10.50;;;7.40;99.90;;;;;;4142239;28;20037;-64
2024/01/06 03:54:53;;;;;;;12.52;8.40;;;7.40;99.90;;;;;;4141894;28;20124;-64
2024/01/06 03:56:54;;;;;;;13.85;8.88;;;7.40;99.90;;;;;;4137214;28;20133;-64
2024/01/06 03:58:55;;;;;;;17.52;11.27;;;7.40;99.90;;;;;;4140794;28;20589;-64
2024/01/06 04:00:55;;;;;;;15.48;9.75;;;7.40;99.90;;;;;;4138823;28;20023;-64
2024/01/06 04:02:56;;;;;;;14.55;9.55;;;7.40;99.90;;;;;;4141290;28;20041;-64
2024/01/06 04:04:56;;;;;;;14.43;8.93;;;7.40;99.90;;;;;;4139136;28;20421;-64
2024/01/06 04:06:57;;;;;;;15.40;9.55;;;7.40;99.90;;;;;;4141452;28;20061;-64
2024/01/06 04:08:58;;;;;;;12.30;7.78;;;7.30;99.90;;;;;;4141173;28;20069;-64
2024/01/06 04:10:58;;;;;;;12.73;8.27;;;7.40;99.90;;;;;;4140113;28;20060;-64
2024/01/06 04:12:59;;;;;;;16.27;10.40;;;7.40;99.90;;;;;;4142038;28;21738;-64
2024/01/06 04:14:59;;;;;;;13.18;8.80;;;7.40;99.90;;;;;;4139736;28;20081;-64
2024/01/06 04:17:00;;;;;;;13.65;8.80;;;7.40;99.90;;;;;;4140938;28;20556;-64
2024/01/06 04:19:01;;;;;;;14.15;9.30;;;7.40;99.90;;;;;;4140474;28;20364;-64
2024/01/06 04:21:01;;;;;;;13.68;9.40;;;7.40;99.90;;;;;;4139502;28;20037;-64
2024/01/06 04:23:02;;;;;;;16.85;10.95;;;7.30;99.90;;;;;;4140228;28;20525;-64
2024/01/06 04:25:03;;;;;;;14.75;8.77;;;7.40;99.90;;;;;;4140889;28;20711;-65
2024/01/06 04:27:04;;;;;;;14.85;9.65;;;7.30;99.90;;;;;;4139046;28;20493;-64
2024/01/06 04:29:05;;;;;;;16.13;9.80;;;7.40;99.90;;;;;;4138266;28;20041;-64
2024/01/06 04:31:05;;;;;;;14.30;9.25;;;7.40;99.90;;;;;;4141506;28;20045;-63
2024/01/06 04:33:07;;;;;;;14.98;9.93;;;7.30;99.90;;;;;;4140976;28;20041;-74
2024/01/06 04:35:08;;;;;;;14.75;9.95;;;7.30;99.90;;;;;;4130735;28;20122;-74
2024/01/06 04:37:09;;;;;;;15.07;10.02;;;7.30;99.90;;;;;;4141690;28;20065;-74
2024/01/06 04:39:09;;;;;;;15.13;9.57;;;7.30;99.90;;;;;;4136185;28;20046;-74
2024/01/06 04:41:10;;;;;;;19.27;11.40;;;7.30;99.90;;;;;;4135089;28;20490;-73
2024/01/06 04:43:11;;;;;;;15.27;10.07;;;7.30;99.90;;;;;;4142729;28;20544;-72
2024/01/06 04:45:11;;;;;;;19.48;12.00;;;7.30;99.90;;;;;;4135453;28;20081;-70
2024/01/06 04:47:12;;;;;;;16.25;10.52;;;7.30;99.90;;;;;;4137141;28;20033;-71
2024/01/06 04:49:12;;;;;;;16.77;11.35;;;7.30;99.90;;;;;;4138962;28;20030;-71
2024/01/06 04:51:13;;;;;;;17.98;11.48;;;7.20;99.90;;;;;;4139160;28;20038;-71
2024/01/06 04:53:14;;;;;;;18.45;11.48;;;7.20;99.90;;;;;;4140024;28;20037;-72
2024/01/06 04:55:14;;;;;;;16.65;10.70;;;7.20;99.90;;;;;;4136565;28;20045;-71
2024/01/06 04:57:16;;;;;;;17.15;11.50;;;7.20;99.90;;;;;;4142257;28;20036;-71
2024/01/06 04:59:16;;;;;;;15.18;10.05;;;7.30;99.90;;;;;;4138744;28;20042;-72
2024/01/06 05:01:17;;;;;;;16.55;10.77;;;7.20;99.90;;;;;;4141173;28;20441;-71
2024/01/06 05:03:18;;;;;;;16.98;11.02;;;7.20;99.90;;;;;;4141128;28;20037;-70
2024/01/06 05:05:18;;;;;;;16.25;10.73;;;7.20;99.90;;;;;;4129196;28;20066;-71
2024/01/06 05:07:19;;;;;;;18.48;11.65;;;7.20;99.90;;;;;;4132025;28;20129;-71
2024/01/06 05:09:19;;;;;;;16.20;10.38;;;7.20;99.90;;;;;;4135941;28;20038;-71
2024/01/06 05:11:20;;;;;;;15.00;9.70;;;7.20;99.90;;;;;;4136872;28;20057;-71
2024/01/06 05:13:21;;;;;;;16.02;10.38;;;7.20;99.90;;;;;;4139408;28;20200;-72
2024/01/06 05:15:21;;;;;;;15.63;10.27;;;7.30;99.90;;;;;;4132825;28;20070;-71
2024/01/06 05:17:22;;;;;;;18.23;11.57;;;7.30;99.90;;;;;;4134784;28;20076;-72
2024/01/06 05:19:22;;;;;;;15.13;10.35;;;7.30;99.90;;;;;;4136161;28;20056;-71
2024/01/06 05:21:23;;;;;;;15.68;10.05;;;7.30;99.90;;;;;;4136607;28;20033;-71
2024/01/06 05:23:24;;;;;;;19.45;12.15;;;7.30;99.90;;;;;;4135021;28;20046;-71
2024/01/06 05:25:24;;;;;;;15.63;10.07;;;7.30;99.90;;;;;;4134410;28;20038;-72
2024/01/06 05:27:25;;;;;;;16.98;11.18;;;7.30;99.90;;;;;;4128816;28;20407;-71
2024/01/06 05:29:26;;;;;;;18.20;11.43;;;7.30;99.90;;;;;;4139930;28;20077;-70
2024/01/06 05:31:26;;;;;;;17.70;11.48;;;7.30;99.90;;;;;;4136595;28;20065;-71
2024/01/06 05:33:27;;;;;;;20.08;12.75;;;7.30;99.90;;;;;;4142696;28;20037;-72
2024/01/06 05:35:27;;;;;;;18.70;11.35;;;7.20;99.90;;;;;;4135648;28;20087;-71
2024/01/06 05:37:28;;;;;;;16.45;10.90;;;7.20;99.90;;;;;;4135189;28;20052;-71
2024/01/06 05:39:28;;;;;;;17.73;12.07;;;7.20;99.90;;;;;;4132943;28;20113;-71
2024/01/06 05:41:29;;;;;;;18.35;11.55;;;7.20;99.90;;;;;;4135313;28;20947;-71
2024/01/06 05:43:29;;;;;;;18.25;11.70;;;7.20;99.90;;;;;;4136536;28;20061;-71
2024/01/06 05:45:30;;;;;;;17.98;11.57;;;7.20;99.90;;;;;;4133824;28;20525;-72
2024/01/06 05:47:31;;;;;;;16.27;10.60;;;7.20;99.90;;;;;;4136047;28;20117;-71
2024/01/06 05:49:31;;;;;;;15.43;9.98;;;7.20;99.90;;;;;;4134841;28;20047;-71
2024/01/06 05:51:32;;;;;;;17.40;10.77;;;7.20;99.90;;;;;;4137358;28;20406;-72
2024/01/06 05:53:32;;;;;;;16.85;11.05;;;7.20;99.90;;;;;;4143277;28;20033;-71
2024/01/06 05:55:33;;;;;;;19.80;11.52;;;7.20;99.90;;;;;;4134832;28;20034;-72
2024/01/06 05:57:34;;;;;;;17.23;11.00;;;7.10;99.90;;;;;;4139457;28;20077;-71
2024/01/06 05:59:35;;;;;;;15.70;10.25;;;7.10;99.90;;;;;;4137958;28;20077;-72
2024/01/06 06:01:35;;;;;;;18.60;11.88;;;7.10;99.90;;;;;;4138165;28;20045;-72
2024/01/06 06:03:36;;;;;;;16.02;11.05;;;7.10;99.90;;;;;;4137249;28;20042;-72
2024/01/06 06:05:36;;;;;;;16.88;10.80;;;7.10;99.90;;;;;;4137858;28;20033;-72
2024/01/06 06:07:38;;;;;;;16.25;10.60;;;7.10;99.90;;;;;;4141592;28;20510;-71
2024/01/06 06:09:40;;;;;;;16.27;10.82;;;7.00;99.90;;;;;;4137188;28;20490;-72
2024/01/06 06:11:40;;;;;;;15.80;10.13;;;7.00;99.90;;;;;;4130021;28;20057;-71
2024/01/06 06:13:41;;;;;;;16.98;11.20;;;7.00;99.90;;;;;;4136023;28;20108;-71
2024/01/06 06:15:42;;;;;;;16.40;10.43;;;7.00;99.90;;;;;;4137475;28;20033;-70
2024/01/06 06:17:43;;;;;;;13.68;9.38;;;7.00;99.90;;;;;;4133830;28;20088;-71
2024/01/06 06:19:43;;;;;;;15.18;10.07;;;6.90;99.90;;;;;;4131848;28;20050;-72
2024/01/06 06:21:44;;;;;;;20.95;11.43;;;6.90;99.90;;;;;;4140573;28;20026;-71
2024/01/06 06:23:45;;;;;;;17.30;10.82;;;6.90;99.90;;;;;;4135317;28;20046;-71
2024/01/06 06:25:45;;;;;;;19.42;12.20;;;6.90;99.90;;;;;;4125432;28;20042;-71
2024/01/06 06:27:46;;;;;;;16.52;11.20;;;6.90;99.90;;;;;;4133691;28;20040;-71
2024/01/06 06:29:46;;;;;;;21.25;13.30;;;6.90;99.90;;;;;;4128567;28;20097;-72
2024/01/06 06:31:48;;;;;;;16.77;11.20;;;6.90;99.90;;;;;;4140447;28;20037;-72
2024/01/06 06:33:49;;;;;;;16.60;11.57;;;6.80;99.90;;;;;;4139239;28;20118;-71
2024/01/06 06:35:49;;;;;;;17.10;11.68;;;6.90;99.90;;;;;;4136016;28;20038;-72
2024/01/06 06:37:50;;;;;;;14.40;10.38;;;6.90;99.90;;;;;;4134690;28;20069;-71
2024/01/06 06:39:50;;;;;;;16.85;11.50;;;6.90;99.90;;;;;;4142321;28;20038;-71
2024/01/06 06:41:51;;;;;;;15.45;10.68;;;6.90;99.90;;;;;;4137659;28;20034;-71
2024/01/06 06:43:51;;;;;;;18.27;11.70;;;6.90;99.90;;;;;;4135571;28;20030;-71
2024/01/06 06:45:52;;;;;;;16.70;11.63;;;6.90;99.90;;;;;;4135482;28;20046;-71
2024/01/06 06:47:52;;;;;;;16.13;10.68;;;6.90;99.90;;;;;;4125746;28;20050;-72
2024/01/06 06:49:53;;;;;;;17.00;11.45;;;6.90;99.90;;;;;;4138082;28;20450;-72
2024/01/06 06:51:55;;;;;;;17.45;11.15;;;6.90;99.90;;;;;;4129891;28;20483;-71
2024/01/06 06:53:56;;;;;;;20.52;12.68;;;6.90;99.90;;;;;;4138330;28;20060;-71
2024/01/06 06:55:57;;;;;;;18.55;11.93;;;6.90;99.90;;;;;;4132592;28;20403;-72
2024/01/06 06:57:57;;;;;;;17.63;11.65;;;6.90;99.90;;;;;;4138516;28;20042;-72
2024/01/06 07:00:00;;;;;;;20.85;12.98;;;6.90;99.90;;;;;;4139978;28;20050;-72
2024/01/06 07:02:01;;;;;;;20.15;13.23;;;6.90;99.90;;;;;;4134358;28;20046;-72
2024/01/06 07:04:02;;;;;;;19.75;12.65;;;6.90;99.90;;;;;;4139075;28;20030;-79
2024/01/06 07:06:03;;;;;;;16.05;11.45;;;6.90;99.90;;;;;;4138981;28;20062;-76
2024/01/06 07:08:04;;;;;;;18.52;12.02;;;6.90;99.90;;;;;;4137644;28;20045;-79
2024/01/06 07:10:05;;;;;;;17.65;12.02;;;6.90;99.90;;;;;;4137378;28;20041;-78
2024/01/06 07:12:06;;;;;;;24.37;14.67;;;6.90;99.90;;;;;;4140566;28;20042;-71
2024/01/06 07:14:07;;;;;;;19.02;12.38;;;6.90;99.90;;;;;;4141460;28;20042;-68
2024/01/06 07:16:07;;;;;;;20.20;12.40;;;6.90;99.90;;;;;;4137618;28;20046;-69
2024/01/06 07:18:08;;;;;;;17.08;11.38;;;6.90;99.90;;;;;;4139138;28;20040;-69
2024/01/06 07:20:09;;;;;;;16.45;10.75;;;6.90;99.90;;;;;;4140928;28;20034;-70
2024/01/06 07:22:10;;;;;;;16.10;10.40;;;6.90;99.90;;;;;;4135602;28;20049;-68
2024/01/06 07:24:10;;;;;;;14.60;10.20;;;6.80;99.90;;;;;;4146446;28;20033;-69
2024/01/06 07:26:11;;;;;;;19.05;11.40;;;6.80;99.90;;;;;;4138858;28;20159;-69
2024/01/06 07:28:11;;;;;;;15.40;9.93;;;6.80;99.90;;;;;;4142999;28;20054;-69
2024/01/06 07:30:12;;;;;;;13.48;9.02;;;6.80;99.90;;;;;;4142309;28;20030;-69
2024/01/06 07:32:13;;;;;;;16.05;9.95;;;6.70;99.90;;;;;;4143764;28;20120;-69
2024/01/06 07:34:13;;;;;;;13.90;9.05;;;6.70;99.90;;;;;;4157482;28;20411;-69
2024/01/06 07:36:14;;;;;;;14.77;9.20;;;6.70;99.90;;;;;;4139405;28;20050;-70
2024/01/06 07:38:15;;;;;;;13.02;8.60;;;6.70;99.90;;;;;;4142498;28;20314;-69
2024/01/06 07:40:16;;;;;;;14.02;8.93;;;6.70;99.90;;;;;;4140948;28;20387;-68
2024/01/06 07:42:16;;;;;;;15.65;9.82;;;6.70;99.90;;;;;;4141379;28;20037;-69
2024/01/06 07:44:22;;;;;;;20.15;12.95;;;6.70;99.90;;;;;;4141946;28;20050;-69
2024/01/06 07:46:24;;;;;;;17.13;10.38;;;6.70;99.90;;;;;;4141856;28;20030;-68
2024/01/06 07:48:24;;;;;;;19.80;11.52;;;6.70;99.90;;;;;;4141491;28;20487;-64
2024/01/06 07:50:26;;;;;;;19.02;11.55;;;6.60;99.90;;;;;;4138806;28;20046;-64
2024/01/06 07:52:26;;;;;;;18.85;11.57;;;6.60;99.90;;;;;;4142963;28;20045;-65
2024/01/06 07:54:27;;;;;;;21.63;12.68;;;6.60;99.90;;;;;;4142300;28;20057;-64
2024/01/06 07:56:27;;;;;;;21.02;11.95;;;6.60;99.90;;;;;;4139298;28;20052;-65
2024/01/06 07:58:28;;;;;;;21.48;12.35;;;6.60;99.90;;;;;;4142831;28;20486;-65
2024/01/06 08:00:29;;;;;;;22.50;13.85;;;6.60;99.90;;;;;;4142277;28;20518;-65
2024/01/06 08:02:29;;;;;;;22.30;13.35;;;6.60;99.90;;;;;;4143989;28;20065;-65
2024/01/06 08:04:30;;;;;;;23.98;14.00;;;6.60;99.90;;;;;;4140582;28;20057;-65
2024/01/06 08:06:31;;;;;;;24.25;14.23;;;6.50;99.90;;;;;;4139514;28;20506;-65
2024/01/06 08:08:31;;;;;;;22.88;13.63;;;6.50;99.90;;;;;;4140412;28;20034;-65
2024/01/06 08:10:32;;;;;;;24.40;15.15;;;6.50;99.90;;;;;;4140519;28;20084;-65
2024/01/06 08:12:32;;;;;;;26.90;15.38;;;6.50;99.90;;;;;;4143704;28;20100;-65
2024/01/06 08:14:33;;;;;;;22.45;14.52;;;6.50;99.90;;;;;;4144329;28;20037;-66
2024/01/06 08:16:34;;;;;;;29.00;17.17;;;6.40;99.90;;;;;;4140005;28;20092;-65
2024/01/06 08:18:34;;;;;;;25.80;14.52;;;6.40;99.90;;;;;;4138103;28;20038;-65
2024/01/06 08:20:35;;;;;;;28.38;15.73;;;6.40;99.90;;;;;;4141151;28;20056;-65
2024/01/06 08:22:35;;;;;;;25.52;15.75;;;6.40;99.90;;;;;;4141771;28;20041;-72
2024/01/06 08:24:36;;;;;;;25.60;14.07;;;6.40;99.90;;;;;;4140173;28;20027;-72
2024/01/06 08:26:36;;;;;;;25.77;15.40;;;6.40;99.90;;;;;;4141719;28;20061;-73
2024/01/06 08:28:37;;;;;;;27.33;15.35;;;6.40;99.90;;;;;;4139896;28;20494;-72
2024/01/06 08:30:38;;;;;;;27.60;16.73;;;6.30;99.90;;;;;;4139046;28;20033;-72
2024/01/06 08:32:38;;;;;;;31.00;16.58;;;6.30;99.90;;;;;;4141020;28;20030;-72
2024/01/06 08:34:39;;;;;;;28.75;16.73;;;6.30;99.90;;;;;;4139029;28;20282;-72
2024/01/06 08:36:41;;;;;;;30.90;18.10;;;6.30;99.90;;;;;;4137818;28;20027;-72
2024/01/06 08:38:41;;;;;;;33.50;18.90;;;6.30;99.90;;;;;;4141692;28;20034;-72
2024/01/06 08:40:42;;;;;;;31.38;17.98;;;6.20;99.90;;;;;;4142119;28;20044;-72
2024/01/06 08:42:44;;;;;;;29.23;16.88;;;6.20;99.90;;;;;;4143903;28;20587;-72
2024/01/06 08:44:44;;;;;;;31.92;17.15;;;6.20;99.90;;;;;;4140205;28;20029;-72
2024/01/06 08:46:45;;;;;;;35.42;19.10;;;6.20;99.90;;;;;;4135901;28;20041;-70
2024/01/06 08:48:45;;;;;;;29.23;17.15;;;6.20;99.90;;;;;;4137352;28;20038;-71
2024/01/06 08:50:46;;;;;;;36.45;19.67;;;6.20;99.90;;;;;;4142275;28;20038;-72
2024/01/06 08:52:47;;;;;;;30.80;17.02;;;6.10;99.90;;;;;;4144079;28;20034;-72
2024/01/06 08:54:49;;;;;;;27.67;16.52;;;6.10;99.90;;;;;;4142190;28;20042;-71
2024/01/06 08:56:49;;;;;;;26.58;15.80;;;6.10;99.90;;;;;;4137046;28;20061;-72
2024/01/06 08:58:50;;;;;;;27.33;15.40;;;6.20;99.90;;;;;;4136531;28;21010;-71
2024/01/06 09:00:53;;;;;;;28.70;17.90;;;6.20;99.90;;;;;;4131444;28;20121;-71
2024/01/06 09:02:53;;;;;;;26.77;15.98;;;6.10;99.90;;;;;;4135470;28;20145;-71
2024/01/06 09:04:54;;;;;;;27.30;15.68;;;6.20;99.90;;;;;;4137989;28;20081;-72
2024/01/06 09:06:54;;;;;;;29.48;16.13;;;6.20;99.90;;;;;;4137955;28;20395;-71
2024/01/06 09:08:55;;;;;;;26.75;15.70;;;6.20;99.90;;;;;;4137663;28;20029;-72
2024/01/06 09:10:57;;;;;;;26.15;15.38;;;6.20;99.90;;;;;;4138443;28;20030;-72
2024/01/06 09:12:57;;;;;;;27.40;16.83;;;6.20;99.90;;;;;;4138390;28;20034;-72
2024/01/06 09:14:58;;;;;;;27.70;15.40;;;6.20;99.90;;;;;;4131793;28;20536;-71
2024/01/06 09:16:58;;;;;;;27.67;16.02;;;6.20;99.90;;;;;;4132937;28;20429;-72
2024/01/06 09:18:59;;;;;;;26.98;15.10;;;6.20;99.90;;;;;;4137263;28;20076;-72
2024/01/06 09:20:59;;;;;;;23.05;14.43;;;6.20;99.90;;;;;;4135825;28;20164;-72
2024/01/06 09:23:00;;;;;;;29.70;17.17;;;6.20;99.90;;;;;;4136064;28;20147;-71
2024/01/06 09:25:01;;;;;;;31.83;17.08;;;6.20;99.90;;;;;;4135921;28;20038;-71
2024/01/06 09:27:03;;;;;;;34.55;18.63;;;6.20;99.90;;;;;;4136047;28;20124;-72
2024/01/06 09:29:03;;;;;;;31.42;18.45;;;6.20;99.90;;;;;;4135673;28;20047;-72
2024/01/06 09:31:04;;;;;;;30.70;17.45;;;6.20;99.90;;;;;;4132703;28;20426;-72
2024/01/06 09:33:05;;;;;;;26.65;15.35;;;6.20;99.90;;;;;;4135952;28;20922;-69
2024/01/06 09:35:05;;;;;;;24.33;14.55;;;6.20;99.90;;;;;;4137108;28;20379;-70
2024/01/06 09:37:06;;;;;;;24.13;14.48;;;6.20;99.90;;;;;;4138532;28;20033;-69
2024/01/06 09:39:08;;;;;;;24.63;14.68;;;6.20;99.90;;;;;;4137419;28;20116;-69
2024/01/06 09:41:08;;;;;;;31.15;16.05;;;6.20;99.90;;;;;;4138273;28;20032;-69
2024/01/06 09:43:09;;;;;;;23.90;13.27;;;6.20;99.90;;;;;;4139457;28;20121;-68
2024/01/06 09:45:10;;;;;;;22.45;13.50;;;6.20;99.90;;;;;;4135250;28;20836;-69
2024/01/06 09:47:12;;;;;;;24.00;14.63;;;6.20;99.90;;;;;;4138643;28;20401;-69
2024/01/06 09:49:14;;;;;;;21.17;12.90;;;6.10;99.90;;;;;;4138890;28;20068;-69
2024/01/06 09:51:15;;;;;;;23.67;14.40;;;6.10;99.90;;;;;;4137989;28;20494;-70
2024/01/06 09:53:16;;;;;;;24.90;14.60;;;6.10;99.90;;;;;;4139150;28;20045;-70
2024/01/06 09:55:22;;;;;;;24.45;15.32;;;6.10;99.90;;;;;;4136802;28;20096;-71
2024/01/06 09:57:23;;;;;;;22.85;14.55;;;6.10;99.90;;;;;;4138703;28;20069;-68
2024/01/06 09:59:24;;;;;;;23.70;14.10;;;6.10;99.90;;;;;;4138187;28;20038;-69
2024/01/06 10:01:24;;;;;;;24.60;15.48;;;6.10;99.90;;;;;;4137370;28;20122;-69
2024/01/06 10:03:26;;;;;;;27.00;16.02;;;6.10;99.90;;;;;;4138101;28;20046;-68
2024/01/06 10:05:27;;;;;;;27.83;16.73;;;6.10;99.90;;;;;;4136068;28;20045;-68
2024/01/06 10:07:28;;;;;;;23.25;14.00;;;6.10;99.90;;;;;;4138526;28;20042;-68
2024/01/06 10:09:28;;;;;;;27.02;16.13;;;6.10;99.90;;;;;;4139554;28;20041;-68
2024/01/06 10:11:29;;;;;;;25.17;15.32;;;6.10;99.90;;;;;;4137034;28;20034;-69
2024/01/06 10:13:30;;;;;;;34.20;19.92;;;6.10;99.90;;;;;;4139755;28;20342;-69
2024/01/06 10:15:30;;;;;;;28.73;17.65;;;6.10;99.90;;;;;;4135573;28;20034;-69
2024/01/06 10:17:31;;;;;;;32.08;18.40;;;6.10;99.90;;;;;;4139976;28;20057;-69
2024/01/06 10:19:31;;;;;;;30.05;18.13;;;6.10;99.90;;;;;;4139012;28;20041;-69
2024/01/06 10:21:32;;;;;;;30.73;19.05;;;6.00;99.90;;;;;;4137412;28;20123;-69
2024/01/06 10:23:33;;;;;;;32.13;19.80;;;6.00;99.90;;;;;;4140702;28;20054;-69